Kona International At Keahole, HI

12:21 PM HST on August 23, 2016 (GMT -1000)
Kona International At Keahole | | Change Station
Active Advisory: Flash Flood Watch Active Notice: Record Report

Elev 43 ft 19.74 °N, 156.05 °W | Updated 28 minutes ago

Clear
Clear
87 °F
Feels Like 97 °F
N
8
Wind Variable Wind from West

Today
High -- | Low -- °F
--% Chance of Precip.
Yesterday
High -- | Low -- °F
Precip. -- in
Pressure 29.87 in
Visibility 10.0 miles
Clouds Clear
Heat Index 97 °F
Dew Point 76 °F
Humidity 69%
Rainfall 0.00 in
Snow Depth Not available.
6:06 AM 6:46 PM
Waning Gibbous, 64% visible
METAR PHKO 232153Z 28007KT 250V310 10SM CLR 31/24 A2986 RMK AO2 SLP113 T03060244
Pressure 29.87 in
Visibility 10.0 miles
Clouds Clear
Heat Index 97 °F
Dew Point 76 °F
Humidity 69%
Rainfall 0.00 in
Snow Depth Not available.
6:06 AM 6:46 PM
Waning Gibbous, 64% visible
METAR PHKO 232153Z 28007KT 250V310 10SM CLR 31/24 A2986 RMK AO2 SLP113 T03060244

10-Day Weather Forecast

Almanac

Astronomy

Aug. 23, 2016 Rise Set
Actual Time
Civil Twilight
Nautical Twilight
Astronomical Twilight
Moon
Length of Visible Light
Length of Day
Tomorrow will be .
, % of the Moon is Illuminated

Today's Extremes

State Highs State Lows

Community

WunderPhotos

Upload Photos

1,934,476 photos uploaded!

WunderBlog® & News

Nearby

Air Quality

  Air Quality AQ Index Pollutant
Not available.

Snow Depth

Station Depth Elevation

Earthquake Activity

City Distance Mag. Time & Date
Minimum magnitude displayed is 2.5.

Coastal Water Temperatures

Place Temperature

Stations

Nearby Weather Stations

Station Location Temp. Windchill Dew Point Humidity Wind Precip. Elev Updated Type
                   

Watches & Warnings

Flash Flood Watch
Issued: 3:04 AM HST Aug. 23, 2016 – National Weather Service

... Flash Flood Watch in effect through this evening...

The National Weather Service in Honolulu has issued a

* Flash Flood Watch for The Big Island.

* Through this evening

* deep tropical moisture and an unstable atmosphere will continue
to produce heavy downpours and a chance of thunderstorms over
The Big Island through this evening. With the ground already
saturated in many areas from heavy rains during the past couple
of days... there will be an elevated risk for flash flooding.

Precautionary/preparedness actions...

A Flash Flood Watch means that conditions may develop that lead
to flash flooding. Flash flooding is very dangerous.

You should monitor later forecasts and be prepared to take action
should flash flood warnings be issued.



Jacobson